Time;durP1;ratioP1;P1;durP2;ratioP2;P2;SDS_P1;SDS_P2;PMS_P1;PMS_P2;Temp;Humidity;BMP_temperature;BMP_pressure;BME280_temperature;BME280_humidity;BME280_pressure;Samples;Min_cycle;Max_cycle;Signal;HPM_P1;HPM_P2
2023/01/15 00:01:43;;;;;;;9.55;5.90;;;;;;;9.41;77.42;102194.31;4954018;28;20033;-82
2023/01/15 00:04:12;;;;;;;9.57;5.95;;;;;;;9.11;77.23;102137.19;4953549;28;20031;-82
2023/01/15 00:06:39;;;;;;;9.82;6.07;;;;;;;9.22;77.02;102164.13;4965462;28;20069;-82
2023/01/15 00:09:06;;;;;;;9.68;6.10;;;;;;;9.41;76.97;102196.94;4967890;28;20062;-82
2023/01/15 00:11:32;;;;;;;9.30;5.93;;;;;;;9.38;77.26;102190.69;4953584;28;20026;-82
2023/01/15 00:13:58;;;;;;;10.43;6.25;;;;;;;9.16;77.14;102159.34;4952505;29;20027;-82
2023/01/15 00:16:24;;;;;;;8.20;5.50;;;;;;;9.27;77.20;102169.72;4968005;28;20055;-82
2023/01/15 00:18:50;;;;;;;9.93;5.63;;;;;;;9.37;77.44;102185.31;4966185;28;20028;-83
2023/01/15 00:21:16;;;;;;;9.95;6.07;;;;;;;9.42;77.28;102197.06;4953227;28;20098;-82
2023/01/15 00:29:12;;;;;;;9.90;5.80;;;;;;;9.36;77.11;102176.59;4952869;28;20061;-83
2023/01/15 00:31:38;;;;;;;9.70;5.47;;;;;;;9.42;77.20;102191.84;4951159;28;20063;-82
2023/01/15 00:34:03;;;;;;;10.43;5.90;;;;;;;9.31;76.99;102175.34;4953725;28;20566;-85
2023/01/15 00:36:30;;;;;;;9.00;5.90;;;;;;;9.24;77.09;102169.47;4952730;28;20038;-84
2023/01/15 00:38:55;;;;;;;9.27;5.75;;;;;;;9.16;77.55;102169.78;4967874;28;20043;-84
2023/01/15 00:41:22;;;;;;;9.60;5.43;;;;;;;9.20;77.37;102167.41;4952491;28;20031;-84
2023/01/15 00:43:47;;;;;;;8.88;5.85;;;;;;;9.37;76.97;102182.72;4968348;28;20042;-84
2023/01/15 00:46:13;;;;;;;10.18;6.30;;;;;;;9.20;77.26;102162.19;4952825;28;20408;-84
2023/01/15 00:48:39;;;;;;;8.40;5.45;;;;;;;8.96;77.14;102115.09;4950801;28;20039;-84
2023/01/15 00:51:05;;;;;;;10.02;5.93;;;;;;;9.31;77.08;102175.34;4950092;28;20564;-84
2023/01/15 00:53:32;;;;;;;9.65;6.22;;;;;;;8.87;77.34;102109.13;4947609;28;20031;-84
2023/01/15 00:55:57;;;;;;;8.73;5.68;;;;;;;9.14;77.15;102150.50;4952779;28;20110;-84
2023/01/15 00:58:23;;;;;;;9.85;5.72;;;;;;;9.23;77.17;102172.84;4960038;28;20102;-84
2023/01/15 01:00:54;;;;;;;8.38;5.80;;;;;;;9.34;76.87;102185.09;4963066;28;20035;-84
2023/01/15 01:03:19;;;;;;;9.50;6.18;;;;;;;9.23;77.14;102173.78;4951774;28;20034;-84
2023/01/15 01:05:45;;;;;;;8.88;5.75;;;;;;;9.23;77.19;102171.19;4954674;28;20031;-84
2023/01/15 01:08:10;;;;;;;9.82;6.07;;;;;;;8.93;77.19;102126.19;4967488;28;20035;-84
2023/01/15 01:10:36;;;;;;;8.40;5.67;;;;;;;9.21;76.89;102159.72;4947874;28;20072;-84
2023/01/15 01:13:01;;;;;;;8.80;5.75;;;;;;;9.21;77.38;102161.38;4952732;28;20110;-84
2023/01/15 01:15:27;;;;;;;9.10;5.70;;;;;;;9.08;77.00;102146.44;4951951;28;20174;-84
2023/01/15 01:17:52;;;;;;;9.10;5.70;;;;;;;9.04;77.41;102144.38;4952993;28;20035;-84
2023/01/15 01:20:19;;;;;;;8.85;5.80;;;;;;;9.26;77.26;102173.13;4952852;28;20035;-84
2023/01/15 01:22:47;;;;;;;9.88;6.13;;;;;;;9.31;77.46;102180.53;4952909;28;20035;-83
2023/01/15 01:25:13;;;;;;;9.57;6.03;;;;;;;9.06;77.10;102137.59;4951670;28;20110;-84
2023/01/15 01:27:38;;;;;;;8.63;5.57;;;;;;;9.13;77.05;102139.94;4952008;28;20033;-84
2023/01/15 01:30:04;;;;;;;8.00;5.47;;;;;;;9.28;77.11;102175.06;4952805;28;20034;-84
2023/01/15 01:32:30;;;;;;;8.65;5.45;;;;;;;9.17;76.94;102155.94;4952512;28;20314;-84
2023/01/15 01:34:56;;;;;;;9.75;5.95;;;;;;;9.02;77.10;102131.25;4967811;28;20066;-84
2023/01/15 01:37:21;;;;;;;9.60;6.03;;;;;;;9.26;77.12;102176.63;4952462;28;20023;-83
2023/01/15 01:39:47;;;;;;;9.77;6.15;;;;;;;9.01;76.92;102137.22;4952071;28;20421;-83
2023/01/15 01:42:15;;;;;;;9.93;5.80;;;;;;;9.02;76.97;102140.75;4966973;28;20027;-84
2023/01/15 01:44:43;;;;;;;8.90;5.95;;;;;;;9.26;77.19;102181.84;4952279;28;20034;-83
2023/01/15 01:47:14;;;;;;;9.45;5.82;;;;;;;9.27;77.19;102173.25;4950924;28;20023;-83
2023/01/15 01:49:42;;;;;;;8.65;5.63;;;;;;;9.22;76.98;102164.13;4945069;28;20148;-83
2023/01/15 01:52:12;;;;;;;8.05;5.50;;;;;;;9.21;77.26;102167.53;4962486;28;20067;-83
2023/01/15 01:54:38;;;;;;;9.38;5.85;;;;;;;9.26;77.38;102184.44;4952368;28;20047;-83
2023/01/15 01:57:05;;;;;;;7.78;5.22;;;;;;;9.10;77.41;102152.69;4950483;28;20027;-84
2023/01/15 01:59:32;;;;;;;9.20;5.55;;;;;;;9.22;77.29;102171.94;4967173;28;20028;-84
2023/01/15 02:01:57;;;;;;;;;;;;;;;9.26;77.35;102175.72;4950902;28;20027;-84
2023/01/15 02:04:24;;;;;;;8.30;5.40;;;;;;;9.23;77.09;102167.63;4966521;28;19921;-84
2023/01/15 02:06:50;;;;;;;10.50;6.25;;;;;;;9.27;77.05;102178.47;4966443;28;20477;-83
2023/01/15 02:09:16;;;;;;;7.53;4.97;;;;;;;9.15;77.20;102157.50;4945613;28;20059;-84
2023/01/15 02:11:41;;;;;;;9.60;5.72;;;;;;;9.07;77.55;102150.75;4935290;29;20154;-84
2023/01/15 02:14:33;;;;;;;8.93;5.15;;;;;;;9.03;77.25;102142.56;4942962;28;20039;-83
2023/01/15 02:17:15;;;;;;;9.55;5.75;;;;;;;8.96;76.90;102126.44;4944647;29;20094;-83
2023/01/15 02:19:51;;;;;;;8.55;5.30;;;;;;;9.24;77.29;102173.00;4939447;29;20039;-84
2023/01/15 02:22:32;;;;;;;8.55;5.28;;;;;;;9.26;76.87;102175.72;4942920;29;20460;-83
2023/01/15 02:25:13;;;;;;;8.63;5.47;;;;;;;9.16;76.96;102169.78;4942740;28;20134;-84
2023/01/15 02:27:43;;;;;;;8.57;5.45;;;;;;;8.94;76.86;102140.13;4933203;29;20150;-84
2023/01/15 02:30:16;;;;;;;8.43;5.22;;;;;;;8.95;76.98;102135.03;4946837;28;20258;-83
2023/01/15 02:32:49;;;;;;;8.90;5.65;;;;;;;9.17;77.03;102168.06;4952065;28;20032;-83
2023/01/15 02:35:18;;;;;;;7.70;5.25;;;;;;;9.15;77.05;102161.81;4941507;29;20023;-84
2023/01/15 02:37:53;;;;;;;8.82;5.15;;;;;;;9.18;77.05;102177.69;4941541;29;20028;-83
2023/01/15 02:40:21;;;;;;;10.75;5.80;;;;;;;9.12;77.51;102178.13;4930071;29;20040;-83
2023/01/15 02:42:48;;;;;;;8.70;5.65;;;;;;;9.14;77.33;102163.53;4939274;29;20501;-84
2023/01/15 02:45:16;;;;;;;8.95;5.47;;;;;;;9.19;77.18;102163.91;4941397;29;20054;-84
2023/01/15 02:47:42;;;;;;;7.72;5.20;;;;;;;9.17;76.72;102155.94;4938315;29;20055;-84
2023/01/15 02:50:12;;;;;;;8.90;5.45;;;;;;;9.21;77.16;102167.53;4945091;28;20123;-84
2023/01/15 02:52:42;;;;;;;9.40;5.28;;;;;;;9.18;77.27;102169.88;4934622;29;20043;-84
2023/01/15 02:55:15;;;;;;;8.30;5.13;;;;;;;9.21;77.05;102161.38;4948246;29;20106;-84
2023/01/15 02:57:42;;;;;;;8.48;5.18;;;;;;;8.96;77.03;102128.13;4968145;28;20086;-84
2023/01/15 03:00:10;;;;;;;7.45;5.05;;;;;;;9.14;77.00;102152.16;4964070;28;20184;-84
2023/01/15 03:02:40;;;;;;;8.15;5.07;;;;;;;9.19;76.97;102161.28;4949876;28;20095;-83
2023/01/15 03:05:30;;;;;;;9.20;5.38;;;;;;;8.61;76.66;102052.28;4949564;29;20537;-83
2023/01/15 03:07:59;;;;;;;8.15;5.35;;;;;;;9.16;76.34;102150.59;4949359;29;20041;-83
2023/01/15 03:10:49;;;;;;;7.40;5.05;;;;;;;9.15;77.30;102154.00;4953395;28;20040;-84
2023/01/15 03:13:35;;;;;;;8.93;5.38;;;;;;;9.04;77.11;102136.56;4952423;28;20432;-83
2023/01/15 03:19:01;;;;;;;9.07;4.90;;;;;;;9.03;76.95;102130.44;4954290;28;20121;-84
2023/01/15 03:21:32;;;;;;;7.95;5.00;;;;;;;9.14;76.96;102154.78;4954404;28;20089;-83
2023/01/15 03:24:00;;;;;;;9.52;5.30;;;;;;;9.13;76.58;102148.66;4954281;28;20026;-83
2023/01/15 03:26:27;;;;;;;8.10;5.03;;;;;;;8.94;76.76;102108.84;4959984;28;20031;-83
2023/01/15 03:28:53;;;;;;;7.88;5.15;;;;;;;9.03;76.83;102127.84;4964205;28;20031;-83
2023/01/15 03:31:19;;;;;;;9.57;5.63;;;;;;;8.98;76.74;102123.06;4954240;28;20031;-84
2023/01/15 03:33:45;;;;;;;7.07;4.78;;;;;;;9.20;76.59;102157.88;4954176;28;20046;-84
2023/01/15 03:36:11;;;;;;;7.38;5.07;;;;;;;9.10;76.61;102138.00;4952181;28;20030;-84
2023/01/15 03:38:38;;;;;;;7.57;4.95;;;;;;;9.19;76.57;102160.38;4953360;28;20031;-83
2023/01/15 03:41:24;;;;;;;7.93;5.32;;;;;;;8.86;76.63;102102.09;4951950;28;20110;-83
2023/01/15 03:44:01;;;;;;;7.03;4.55;;;;;;;9.21;76.56;102151.91;4968909;28;20031;-84
2023/01/15 03:46:36;;;;;;;7.82;4.97;;;;;;;9.18;76.83;102156.84;4954170;28;20044;-83
2023/01/15 03:49:17;;;;;;;7.65;5.10;;;;;;;8.95;76.62;102123.69;4952280;28;20034;-83
2023/01/15 03:52:00;;;;;;;9.48;5.55;;;;;;;8.95;76.40;102119.41;4952564;28;20397;-83
2023/01/15 03:54:35;;;;;;;7.95;5.45;;;;;;;8.85;76.51;102105.50;4954147;28;20067;-83
2023/01/15 03:57:06;;;;;;;7.72;4.70;;;;;;;9.13;77.03;102153.88;4968734;28;20050;-83
2023/01/15 03:59:38;;;;;;;7.45;4.80;;;;;;;8.99;76.71;102122.25;4965231;28;20023;-83
2023/01/15 04:02:06;;;;;;;8.45;5.22;;;;;;;9.01;76.82;102124.19;4967042;28;20450;-84
2023/01/15 04:04:32;;;;;;;7.30;4.82;;;;;;;9.01;77.00;102123.28;4968205;28;20034;-83
2023/01/15 04:06:59;;;;;;;8.70;5.07;;;;;;;8.99;76.83;102124.84;4954270;28;20521;-83
2023/01/15 04:09:25;;;;;;;8.65;4.80;;;;;;;8.94;76.81;102120.19;4962117;28;20047;-82
2023/01/15 04:11:50;;;;;;;8.05;4.90;;;;;;;9.17;76.74;102150.72;4953388;28;20378;-83
2023/01/15 04:14:16;;;;;;;8.48;4.90;;;;;;;8.94;76.84;102124.50;4953444;28;20512;-83
2023/01/15 04:16:42;;;;;;;7.20;4.63;;;;;;;9.02;76.52;102119.91;4953802;28;20106;-82
2023/01/15 04:19:07;;;;;;;7.75;4.72;;;;;;;9.07;76.56;102142.94;4952899;28;20046;-82
2023/01/15 04:21:33;;;;;;;7.32;4.82;;;;;;;9.11;76.88;102145.00;4953864;28;20031;-83
2023/01/15 04:23:58;;;;;;;7.32;4.85;;;;;;;9.07;76.77;102135.13;4952800;28;20523;-82
2023/01/15 04:26:24;;;;;;;7.22;4.78;;;;;;;9.12;76.63;102152.06;4953242;28;20030;-83
2023/01/15 04:28:50;;;;;;;8.68;5.20;;;;;;;9.04;76.49;102134.88;4953361;28;20206;-82
2023/01/15 04:31:15;;;;;;;7.72;5.07;;;;;;;9.02;76.87;102140.75;4953486;28;20027;-82
2023/01/15 04:33:41;;;;;;;7.72;5.13;;;;;;;8.93;76.72;102125.25;4953538;28;20031;-83
2023/01/15 04:36:10;;;;;;;8.32;5.00;;;;;;;8.87;76.67;102112.66;4952714;28;20032;-82
2023/01/15 04:38:37;;;;;;;8.02;4.53;;;;;;;9.01;76.71;102131.09;4967859;28;20049;-83
2023/01/15 04:44:06;;;;;;;8.38;5.15;;;;;;;9.14;76.43;102152.16;4965981;28;20042;-83
2023/01/15 04:46:40;;;;;;;7.43;4.55;;;;;;;9.08;76.49;102149.06;4944829;28;20019;-83
2023/01/15 04:49:12;;;;;;;7.03;4.63;;;;;;;8.94;76.50;102121.88;4961800;28;20039;-84
2023/01/15 04:51:38;;;;;;;7.13;4.65;;;;;;;9.04;76.75;102139.16;4967551;28;20129;-84
2023/01/15 04:54:05;;;;;;;7.28;4.43;;;;;;;9.12;76.46;102156.34;4967988;28;20031;-84
2023/01/15 04:56:32;;;;;;;7.00;4.80;;;;;;;8.96;76.56;102131.63;4951711;28;20031;-84
2023/01/15 04:59:00;;;;;;;7.95;4.80;;;;;;;8.88;76.29;102122.28;4951910;28;20038;-83
2023/01/15 05:01:26;;;;;;;6.72;4.57;;;;;;;8.90;76.36;102133.72;4967257;28;20474;-84
2023/01/15 05:03:52;;;;;;;7.18;5.07;;;;;;;9.11;76.60;102164.97;4952831;28;20179;-84
2023/01/15 05:06:17;;;;;;;6.53;4.47;;;;;;;9.09;76.79;102162.22;4952492;28;20031;-83
2023/01/15 05:08:44;;;;;;;7.22;4.88;;;;;;;8.90;76.33;102138.03;4955436;28;20078;-84
2023/01/15 05:11:10;;;;;;;;;;;;;;;9.12;76.43;102175.53;4970611;28;20057;-83
2023/01/15 05:13:36;;;;;;;6.93;4.60;;;;;;;9.13;76.34;102179.03;4954304;28;20379;-82
2023/01/15 05:16:08;;;;;;;6.20;4.28;;;;;;;9.11;77.00;102184.09;4971806;28;20030;-83
2023/01/15 05:18:34;;;;;;;6.70;4.50;;;;;;;9.10;76.27;102179.69;4971448;28;20030;-83
2023/01/15 05:21:00;;;;;;;6.57;4.22;;;;;;;9.01;76.46;102173.69;4970448;28;20074;-83
2023/01/15 05:23:25;;;;;;;6.07;4.43;;;;;;;9.07;76.36;102162.88;4953502;28;20046;-82
2023/01/15 05:25:51;;;;;;;6.60;4.43;;;;;;;8.74;76.67;102125.44;4970400;28;20100;-83
2023/01/15 05:28:18;;;;;;;7.78;4.80;;;;;;;9.06;76.34;102169.81;4970133;28;20301;-83
2023/01/15 05:30:43;;;;;;;7.25;4.40;;;;;;;8.92;76.61;102149.50;4971248;28;20042;-83
2023/01/15 05:33:09;;;;;;;7.20;4.68;;;;;;;9.14;76.16;102188.66;4954533;28;20041;-84
2023/01/15 05:35:35;;;;;;;6.22;4.10;;;;;;;8.82;76.65;102131.28;4953681;28;20033;-84
2023/01/15 05:38:02;;;;;;;6.25;4.57;;;;;;;9.02;76.12;102174.63;4954670;28;20539;-84
2023/01/15 05:40:28;;;;;;;6.70;4.30;;;;;;;8.96;76.67;102173.31;4954354;28;20497;-84
2023/01/15 05:42:53;;;;;;;6.38;4.15;;;;;;;9.06;76.33;102184.50;4971583;28;20122;-84
2023/01/15 05:45:19;;;;;;;6.82;4.50;;;;;;;9.06;76.83;102179.28;4954311;28;20494;-83
2023/01/15 05:47:45;;;;;;;6.25;4.35;;;;;;;9.08;76.25;102185.53;4968670;28;20485;-84
2023/01/15 05:50:10;;;;;;;6.53;4.35;;;;;;;9.02;76.42;102178.16;4969559;28;20087;-83
2023/01/15 05:52:36;;;;;;;6.45;4.13;;;;;;;8.93;76.38;102170.47;4970783;28;20030;-83
2023/01/15 05:55:01;;;;;;;7.07;4.40;;;;;;;8.81;76.48;102150.31;4955281;28;20034;-83
2023/01/15 05:57:27;;;;;;;7.65;4.38;;;;;;;8.98;76.56;102170.84;4952310;28;20031;-83
2023/01/15 05:59:54;;;;;;;6.53;4.38;;;;;;;8.84;76.41;102145.34;4969587;28;20031;-83
2023/01/15 06:02:38;;;;;;;6.90;4.40;;;;;;;8.89;76.64;102163.19;4974136;28;20531;-83
2023/01/15 06:05:04;;;;;;;6.90;4.38;;;;;;;9.05;76.67;102190.50;4972952;28;20113;-83
2023/01/15 06:07:30;;;;;;;;;;;;;;;9.05;76.65;102194.00;4975307;28;20651;-83
2023/01/15 06:09:55;;;;;;;6.28;4.15;;;;;;;9.04;76.90;102197.41;4974178;28;20012;-83
2023/01/15 06:12:21;;;;;;;6.32;4.18;;;;;;;8.85;76.32;102162.81;4974368;28;20061;-83
2023/01/15 06:14:46;;;;;;;6.45;4.47;;;;;;;8.97;76.56;102182.03;4975246;28;20112;-82
2023/01/15 06:17:13;;;;;;;5.50;3.95;;;;;;;8.79;76.05;102147.56;4975266;28;20061;-83
2023/01/15 06:19:39;;;;;;;7.07;4.20;;;;;;;8.61;76.77;102123.50;4974478;28;20046;-85
2023/01/15 06:22:05;;;;;;;6.30;4.18;;;;;;;9.05;76.02;102195.72;4973349;28;20027;-83
2023/01/15 06:24:30;;;;;;;6.07;4.05;;;;;;;8.95;75.99;102175.78;4974859;28;20030;-82
2023/01/15 06:26:56;;;;;;;5.32;3.63;;;;;;;8.87;76.51;102156.00;4974452;28;20033;-82
2023/01/15 06:29:21;;;;;;;5.78;4.25;;;;;;;9.09;76.30;102197.78;4974030;28;20122;-83
2023/01/15 06:31:48;;;;;;;6.57;4.00;;;;;;;9.08;75.73;102190.75;4974781;28;20058;-83
2023/01/15 06:34:13;;;;;;;6.90;4.38;;;;;;;9.05;76.27;102194.00;4974606;28;20033;-84
2023/01/15 06:36:39;;;;;;;7.10;4.63;;;;;;;8.59;76.30;102113.75;4941329;28;20254;-83
2023/01/15 06:39:04;;;;;;;6.87;4.17;;;;;;;9.06;76.42;102197.53;4974126;28;20030;-82
2023/01/15 06:47:22;;;;;;;5.60;4.10;;;;;;;8.98;76.35;102198.63;4973654;28;20033;-83
2023/01/15 06:49:52;;;;;;;7.30;4.50;;;;;;;8.89;76.15;102185.69;4960536;28;20110;-83
2023/01/15 06:52:18;;;;;;;7.03;4.70;;;;;;;9.03;76.25;102199.91;4972810;28;20039;-84
2023/01/15 06:54:48;;;;;;;6.63;4.00;;;;;;;8.97;76.46;102195.06;4955622;28;20077;-85
2023/01/15 06:57:14;;;;;;;6.30;4.25;;;;;;;8.75;76.47;102166.34;4973011;28;20026;-83
2023/01/15 06:59:40;;;;;;;6.03;4.10;;;;;;;9.07;76.70;102207.19;4972129;28;20089;-84
2023/01/15 07:02:05;;;;;;;6.38;3.92;;;;;;;9.02;76.45;102201.59;4973083;28;20034;-84
2023/01/15 07:04:32;;;;;;;6.85;4.15;;;;;;;8.72;76.65;102146.16;4971936;28;20031;-82
2023/01/15 07:06:57;;;;;;;;;;;;;;;9.06;76.44;102205.34;4973447;28;20092;-84
2023/01/15 07:09:23;;;;;;;6.18;4.10;;;;;;;8.95;76.72;102192.38;4974218;28;19926;-86
2023/01/15 07:11:48;;;;;;;8.02;4.13;;;;;;;8.84;76.30;102180.13;4973664;28;20031;-83
2023/01/15 07:14:16;;;;;;;5.05;3.58;;;;;;;8.71;76.51;102148.63;4973628;28;20102;-84
2023/01/15 07:16:41;;;;;;;5.85;3.95;;;;;;;8.77;76.52;102178.69;4973314;28;20034;-84
2023/01/15 07:19:08;;;;;;;6.38;3.92;;;;;;;8.91;76.25;102184.13;4972049;28;20403;-85
2023/01/15 07:21:33;;;;;;;5.18;3.88;;;;;;;8.98;76.81;102206.44;4968798;28;20035;-85
2023/01/15 07:23:59;;;;;;;5.60;3.75;;;;;;;8.91;76.38;102184.13;4964908;28;20039;-86
2023/01/15 07:26:26;;;;;;;5.55;3.90;;;;;;;9.03;76.23;102206.00;4955690;28;20093;-84
2023/01/15 07:28:51;;;;;;;5.55;3.75;;;;;;;8.85;76.45;102179.34;4973416;28;20027;-86
2023/01/15 07:31:17;;;;;;;6.28;4.38;;;;;;;8.79;76.43;102167.50;4973563;28;20033;-86
2023/01/15 07:33:43;;;;;;;6.00;3.90;;;;;;;8.80;76.28;102175.44;4952185;28;20512;-84
2023/01/15 07:36:09;;;;;;;5.50;4.00;;;;;;;9.04;76.65;102204.31;4962437;28;20404;-87
2023/01/15 07:38:34;;;;;;;5.43;3.70;;;;;;;8.63;76.20;102141.84;4959136;28;20142;-85
2023/01/15 07:51:58;;;;;;;6.15;3.95;;;;;;;8.84;76.58;102180.13;4972101;28;20033;-85
2023/01/15 07:54:24;;;;;;;4.88;3.70;;;;;;;8.80;76.57;102178.03;4971675;28;20027;-85
2023/01/15 07:56:51;;;;;;;7.20;4.10;;;;;;;8.82;76.41;102176.47;4969259;28;20114;-85
2023/01/15 07:59:17;;;;;;;6.30;4.30;;;;;;;8.95;75.96;102207.06;4952813;28;20023;-85
2023/01/15 08:01:43;;;;;;;6.97;4.20;;;;;;;8.94;76.14;102198.34;4955241;28;21737;-87
2023/01/15 08:04:08;;;;;;;5.40;3.80;;;;;;;8.83;75.91;102178.31;4973831;28;20035;-84
2023/01/15 08:06:35;;;;;;;6.15;3.92;;;;;;;8.70;76.05;102149.38;4971874;28;20292;-84
2023/01/15 08:09:00;;;;;;;6.35;4.30;;;;;;;8.66;76.44;102147.34;4971695;28;20054;-85
2023/01/15 08:16:55;;;;;;;6.00;4.05;;;;;;;8.80;76.25;102187.56;4958163;28;20400;-85
2023/01/15 08:19:20;;;;;;;6.10;4.10;;;;;;;8.79;76.41;102197.06;4955009;28;20034;-85
2023/01/15 08:21:46;;;;;;;5.13;3.67;;;;;;;8.72;76.54;102179.09;4951692;28;20034;-89
2023/01/15 08:24:12;;;;;;;5.65;3.80;;;;;;;8.71;76.50;102179.88;4955476;28;20416;-85
2023/01/15 08:26:38;;;;;;;4.78;3.63;;;;;;;8.67;76.57;102165.69;4971690;28;20031;-83
2023/01/15 08:29:04;;;;;;;6.22;4.03;;;;;;;8.87;76.81;102211.66;4953242;28;20089;-85
2023/01/15 08:31:30;;;;;;;6.80;4.20;;;;;;;8.87;76.35;102218.53;4956248;28;20045;-88
2023/01/15 08:33:55;;;;;;;5.97;4.18;;;;;;;8.57;76.41;102152.66;4955592;28;20039;-89
2023/01/15 08:36:21;;;;;;;5.40;3.75;;;;;;;8.63;76.28;102149.66;4940104;28;20488;-88
2023/01/15 08:38:50;;;;;;;6.10;4.18;;;;;;;8.79;76.61;102194.47;4955480;28;20023;-89
2023/01/15 08:41:18;;;;;;;6.22;3.90;;;;;;;8.88;76.39;102208.25;4959722;28;20105;-86
2023/01/15 08:43:44;;;;;;;4.90;3.45;;;;;;;8.66;76.01;102178.59;4971970;28;20026;-87
2023/01/15 08:46:11;;;;;;;5.38;4.05;;;;;;;8.83;76.49;102201.75;4953801;28;20047;-88
2023/01/15 08:48:37;;;;;;;5.75;4.00;;;;;;;8.80;76.46;102204.06;4954809;28;20079;-90
2023/01/15 08:51:04;;;;;;;5.85;3.95;;;;;;;8.61;76.64;102152.13;4939114;28;20420;-87
2023/01/15 08:53:33;;;;;;;6.00;4.20;;;;;;;8.80;76.32;102197.97;4971728;28;20035;-87
2023/01/15 08:55:59;;;;;;;5.30;4.15;;;;;;;8.79;76.47;102189.25;4954505;28;20396;-89
2023/01/15 08:58:30;;;;;;;6.07;3.70;;;;;;;8.71;76.00;102174.66;4955553;28;20031;-88
2023/01/15 09:01:07;;;;;;;6.03;3.95;;;;;;;8.89;76.18;102204.88;4955048;28;20551;-88
2023/01/15 09:03:33;;;;;;;6.75;4.15;;;;;;;8.92;76.24;102210.31;4954713;28;20027;-88
2023/01/15 09:06:06;;;;;;;5.38;3.75;;;;;;;8.81;76.42;102192.91;4955664;28;20026;-88
2023/01/15 09:08:32;;;;;;;5.10;3.80;;;;;;;8.85;76.28;102186.25;4933815;28;20210;-87
2023/01/15 09:10:59;;;;;;;5.50;3.75;;;;;;;8.84;76.33;102179.22;4939268;28;20034;-86
2023/01/15 09:13:25;;;;;;;6.25;4.22;;;;;;;8.88;76.55;102182.19;4949947;28;20121;-87
2023/01/15 09:15:51;;;;;;;;;;;;;;;8.92;76.36;102189.47;4971367;28;20023;-87
2023/01/15 09:18:19;;;;;;;7.22;4.35;;;;;;;8.89;76.52;102177.88;4956934;28;19922;-88
2023/01/15 09:20:45;;;;;;;5.88;4.30;;;;;;;8.89;76.59;102185.69;4954179;28;20093;-88
2023/01/15 09:23:11;;;;;;;6.55;4.30;;;;;;;8.51;76.48;102121.84;4954839;28;20034;-87
2023/01/15 09:25:37;;;;;;;6.72;4.13;;;;;;;8.52;76.36;102122.75;4952107;28;20408;-87
2023/01/15 09:28:02;;;;;;;5.85;3.92;;;;;;;8.85;76.78;102175.84;4953776;28;20039;-86
2023/01/15 09:30:28;;;;;;;6.18;4.30;;;;;;;8.71;76.31;102146.91;4970297;28;20027;-87
2023/01/15 09:32:55;;;;;;;8.80;4.72;;;;;;;8.72;76.34;102143.56;4954020;28;20030;-86
2023/01/15 09:35:23;;;;;;;6.75;4.15;;;;;;;8.87;76.76;102167.38;4970845;28;20039;-88
2023/01/15 09:37:52;;;;;;;6.15;3.80;;;;;;;8.66;76.52;102118.69;4938268;28;20097;-88
2023/01/15 09:40:54;;;;;;;7.22;4.22;;;;;;;8.80;76.43;102136.34;4970922;28;20038;-86
2023/01/15 09:43:46;;;;;;;6.22;3.92;;;;;;;8.85;76.39;102152.41;4958154;28;20019;-85
2023/01/15 09:46:16;;;;;;;7.63;4.50;;;;;;;8.73;76.59;102141.84;4970064;28;20105;-86
2023/01/15 09:49:02;;;;;;;6.95;4.40;;;;;;;8.87;76.67;102140.38;4959866;28;20390;-86
2023/01/15 09:51:46;;;;;;;5.88;4.00;;;;;;;8.87;76.42;102141.31;4945370;28;20039;-85
2023/01/15 09:54:30;;;;;;;6.00;3.95;;;;;;;8.90;76.47;102148.47;4958492;28;20173;-86
2023/01/15 09:56:56;;;;;;;5.50;3.78;;;;;;;8.81;76.27;102132.09;4970817;28;20035;-85
2023/01/15 09:59:30;;;;;;;5.32;4.00;;;;;;;8.85;76.59;102148.09;4971359;28;20522;-87
2023/01/15 10:01:56;;;;;;;6.15;4.15;;;;;;;8.68;76.46;102119.75;4949488;28;20027;-86
2023/01/15 10:04:37;;;;;;;6.70;4.25;;;;;;;8.61;76.85;102104.38;4945791;28;20026;-85
2023/01/15 10:07:13;;;;;;;5.68;4.03;;;;;;;8.81;76.75;102126.88;4951776;28;20078;-86
2023/01/15 10:09:40;;;;;;;5.30;3.90;;;;;;;8.71;76.60;102107.84;4970439;28;20055;-85
2023/01/15 10:12:34;;;;;;;6.65;4.30;;;;;;;8.85;76.62;102127.25;4969828;28;20050;-86
2023/01/15 10:15:02;;;;;;;5.90;3.72;;;;;;;8.88;76.32;102130.09;4970201;28;20101;-86
2023/01/15 10:17:35;;;;;;;6.05;3.95;;;;;;;8.46;76.82;102057.13;4971326;28;20038;-86
2023/01/15 10:20:01;;;;;;;6.03;3.83;;;;;;;8.86;76.69;102121.25;4952811;28;20064;-86
2023/01/15 10:22:47;;;;;;;5.38;3.78;;;;;;;8.87;76.68;102115.25;4951129;28;20033;-85
2023/01/15 10:25:23;;;;;;;4.85;3.60;;;;;;;8.72;76.31;102080.09;4959045;28;20559;-86
2023/01/15 10:27:50;;;;;;;6.60;4.05;;;;;;;8.87;76.41;102110.06;4968554;28;20026;-85
2023/01/15 10:30:40;;;;;;;5.93;3.80;;;;;;;8.88;76.62;102095.31;4953311;28;20114;-85
2023/01/15 10:33:34;;;;;;;5.55;3.80;;;;;;;8.84;76.61;102088.03;4953002;28;20038;-85
2023/01/15 10:36:06;;;;;;;5.30;3.60;;;;;;;8.80;76.35;102073.84;4942323;28;20062;-84
2023/01/15 10:38:36;;;;;;;5.82;4.00;;;;;;;8.93;76.13;102097.53;4970723;28;20078;-86
2023/01/15 10:41:20;;;;;;;5.45;3.70;;;;;;;8.72;76.33;102059.28;4951723;28;20114;-86
2023/01/15 10:44:08;;;;;;;5.75;3.72;;;;;;;8.89;76.59;102090.25;4970259;28;20034;-86
2023/01/15 10:46:37;;;;;;;5.55;4.35;;;;;;;8.83;76.60;102083.63;4946493;28;20038;-86
2023/01/15 10:49:20;;;;;;;5.57;3.72;;;;;;;8.58;76.16;102039.94;4953351;28;20058;-86
2023/01/15 10:51:58;;;;;;;5.75;3.92;;;;;;;8.75;76.51;102063.06;4968396;28;20027;-86
2023/01/15 10:54:31;;;;;;;6.50;4.00;;;;;;;8.89;76.33;102078.91;4955932;28;20034;-86
2023/01/15 10:57:20;;;;;;;6.00;4.07;;;;;;;8.89;76.52;102085.03;4950927;28;20023;-86
2023/01/15 10:59:59;;;;;;;5.63;4.07;;;;;;;8.74;76.56;102060.31;4970697;28;20034;-86
2023/01/15 11:02:25;;;;;;;5.78;3.80;;;;;;;8.88;76.58;102078.00;4956064;28;20029;-84
2023/01/15 11:04:50;;;;;;;5.45;4.00;;;;;;;8.90;76.58;102080.72;4974051;28;20113;-83
2023/01/15 11:07:17;;;;;;;5.72;3.70;;;;;;;8.88;76.38;102067.56;4973016;28;20030;-84
2023/01/15 11:09:43;;;;;;;6.25;4.07;;;;;;;8.89;75.92;102042.41;4973311;28;20088;-84
2023/01/15 11:20:34;;;;;;;8.38;5.22;;;;;;;8.87;76.40;102041.38;4969328;28;20118;-84
2023/01/15 11:23:07;;;;;;;10.18;5.22;;;;;;;8.89;76.65;102045.97;4973878;28;20061;-84
2023/01/15 11:25:33;;;;;;;8.85;5.40;;;;;;;8.75;76.54;102017.88;4956544;28;20109;-84
2023/01/15 11:28:01;;;;;;;9.10;5.53;;;;;;;8.73;76.65;102022.94;4973841;28;20477;-83
2023/01/15 11:30:36;;;;;;;10.20;5.00;;;;;;;8.72;76.31;102015.00;4955891;28;20035;-83
2023/01/15 11:33:04;;;;;;;7.68;4.97;;;;;;;8.75;76.82;102016.16;4960734;28;20070;-83
2023/01/15 11:35:31;;;;;;;10.93;4.95;;;;;;;8.88;76.62;102038.00;4948612;28;20123;-84
2023/01/15 11:38:12;;;;;;;8.00;4.95;;;;;;;8.86;76.48;102032.66;4959138;28;20031;-85
2023/01/15 11:40:38;;;;;;;11.10;5.10;;;;;;;8.80;76.26;102018.25;4971232;28;20038;-84
2023/01/15 11:51:40;;;;;;;7.53;4.85;;;;;;;8.77;76.65;101995.47;4967669;28;20077;-84
2023/01/15 11:54:10;;;;;;;7.90;5.10;;;;;;;8.69;76.88;101981.81;4956598;28;20452;-85
2023/01/15 11:56:41;;;;;;;7.63;4.80;;;;;;;8.66;76.86;101978.97;4968565;28;20440;-84
2023/01/15 11:59:16;;;;;;;8.48;4.82;;;;;;;8.90;76.67;102016.50;4955025;28;20027;-84
2023/01/15 12:02:04;;;;;;;7.38;4.68;;;;;;;8.58;76.35;101958.31;4950741;28;20475;-84
2023/01/15 12:04:55;;;;;;;6.95;4.70;;;;;;;8.91;76.41;102010.53;4971131;28;20479;-84
2023/01/15 12:07:23;;;;;;;6.32;4.45;;;;;;;8.88;76.33;102004.16;4952532;28;20046;-84
2023/01/15 12:10:10;;;;;;;7.28;4.75;;;;;;;8.89;76.64;102013.75;4947593;28;20048;-84
2023/01/15 12:13:09;;;;;;;7.72;4.65;;;;;;;8.88;76.13;102004.16;4928220;29;20035;-84
2023/01/15 12:16:09;;;;;;;8.88;4.90;;;;;;;8.88;76.76;102011.97;4932469;29;20045;-84
2023/01/15 12:18:57;;;;;;;6.85;4.40;;;;;;;8.91;76.66;102015.75;4907341;29;20154;-84
2023/01/15 12:21:47;;;;;;;6.53;4.65;;;;;;;8.92;76.24;102012.31;4960610;28;20035;-83
2023/01/15 12:24:30;;;;;;;8.02;5.07;;;;;;;8.86;76.47;102008.31;4936932;28;20497;-84
2023/01/15 12:27:08;;;;;;;7.30;4.47;;;;;;;8.85;76.78;102007.44;4934627;29;20501;-84
2023/01/15 12:29:58;;;;;;;8.40;4.40;;;;;;;8.48;76.66;101936.72;4934366;28;20039;-83
2023/01/15 12:32:30;;;;;;;7.03;4.38;;;;;;;8.34;76.43;101908.66;4951812;28;20710;-84
2023/01/15 12:35:14;;;;;;;7.95;4.70;;;;;;;8.71;76.82;101977.63;4948306;28;20556;-84
2023/01/15 12:38:17;;;;;;;7.35;4.78;;;;;;;8.80;76.62;101981.78;4930560;29;20078;-83